Time;durP1;ratioP1;P1;durP2;ratioP2;P2;SDS_P1;SDS_P2;PMS_P1;PMS_P2;Temp;Humidity;BMP_temperature;BMP_pressure;BME280_temperature;BME280_humidity;BME280_pressure;Samples;Min_cycle;Max_cycle;Signal;HPM_P1;HPM_P2
2022/04/03 00:01:30;;;;;;;7.77;6.67;;;;;;;;;;5057923;28;20436;-74
2022/04/03 00:03:56;;;;;;;6.07;5.57;;;;;;;;;;5075792;28;20465;-73
2022/04/03 00:06:23;;;;;;;7.00;6.40;;;;;;;;;;5076503;28;20421;-74
2022/04/03 00:08:49;;;;;;;8.90;6.50;;;;;;;;;;5076172;28;20413;-74
2022/04/03 00:11:15;;;;;;;7.90;7.17;;;;;;;;;;5075784;28;20428;-74
2022/04/03 00:13:41;;;;;;;7.33;6.83;;;;;;;;;;5075695;28;20528;-74
2022/04/03 00:16:07;;;;;;;7.77;7.17;;;;;;;;;;5075701;28;20500;-74
2022/04/03 00:18:34;;;;;;;7.10;6.70;;;;;;;;;;5075656;28;20426;-74
2022/04/03 00:21:01;;;;;;;6.60;6.00;;;;;;;;;;5075754;28;20464;-74
2022/04/03 00:23:27;;;;;;;7.57;6.87;;;;;;;;;;5075463;28;20479;-74
2022/04/03 00:25:53;;;;;;;6.97;6.47;;;;;;;;;;5075373;28;20901;-73
2022/04/03 00:28:20;;;;;;;7.07;6.57;;;;;;;;;;5075426;28;20421;-74
2022/04/03 00:30:46;;;;;;;7.37;6.70;;;;;;;;;;5075677;28;21351;-73
2022/04/03 00:33:13;;;;;;;6.40;5.80;;;;;;;;;;5075939;28;20441;-73
2022/04/03 00:35:39;;;;;;;6.03;5.63;;;;;;;;;;5075370;28;20418;-74
2022/04/03 00:38:05;;;;;;;7.73;7.13;;;;;;;;;;5075265;28;20414;-74
2022/04/03 00:40:31;;;;;;;7.60;7.00;;;;;;;;;;5075285;28;20414;-74
2022/04/03 00:42:57;;;;;;;6.50;6.00;;;;;;;;;;5075604;28;20473;-74
2022/04/03 00:45:23;;;;;;;7.27;6.87;;;;;;;;;;5075273;28;20420;-73
2022/04/03 00:47:51;;;;;;;6.27;5.97;;;;;;;;;;5075084;28;20449;-74
2022/04/03 00:50:18;;;;;;;6.90;6.20;;;;;;;;;;5075292;28;20424;-75
2022/04/03 00:52:44;;;;;;;7.30;6.80;;;;;;;;;;5075247;28;20421;-74
2022/04/03 00:55:10;;;;;;;7.30;6.60;;;;;;;;;;5074557;28;20414;-75
2022/04/03 00:57:36;;;;;;;8.43;6.80;;;;;;;;;;5074933;28;20523;-74
2022/04/03 01:00:04;;;;;;;6.30;5.80;;;;;;;;;;5074819;28;20416;-74
2022/04/03 01:02:31;;;;;;;6.33;5.93;;;;;;;;;;5074587;28;20790;-74
2022/04/03 01:04:57;;;;;;;6.93;6.43;;;;;;;;;;5074993;28;20898;-73
2022/04/03 01:07:23;;;;;;;7.83;7.23;;;;;;;;;;5075231;28;20406;-74
2022/04/03 01:09:49;;;;;;;7.57;6.97;;;;;;;;;;5074671;28;20426;-74
2022/04/03 01:12:15;;;;;;;7.40;6.90;;;;;;;;;;5074609;28;20463;-74
2022/04/03 01:14:42;;;;;;;7.53;7.00;;;;;;;;;;5074688;28;20483;-73
2022/04/03 01:17:10;;;;;;;10.43;7.70;;;;;;;;;;5074767;28;20886;-74
2022/04/03 01:19:36;;;;;;;7.73;7.13;;;;;;;;;;5074824;28;20445;-75
2022/04/03 01:22:03;;;;;;;7.90;7.37;;;;;;;;;;5074665;28;20453;-75
2022/04/03 01:24:30;;;;;;;7.10;6.50;;;;;;;;;;5074323;28;20425;-75
2022/04/03 01:26:56;;;;;;;6.80;6.33;;;;;;;;;;5074658;28;20412;-74
2022/04/03 01:29:23;;;;;;;6.80;6.40;;;;;;;;;;5074254;28;20417;-74
2022/04/03 01:31:50;;;;;;;7.83;7.23;;;;;;;;;;5074060;28;20468;-75
2022/04/03 01:34:16;;;;;;;6.87;6.23;;;;;;;;;;5074028;28;20831;-74
2022/04/03 01:36:43;;;;;;;7.80;7.30;;;;;;;;;;5074463;28;20421;-75
2022/04/03 01:39:12;;;;;;;7.17;6.63;;;;;;;;;;5074109;28;20467;-75
2022/04/03 01:41:38;;;;;;;7.17;6.63;;;;;;;;;;5074214;28;20418;-75
2022/04/03 01:44:05;;;;;;;7.07;6.57;;;;;;;;;;5073864;28;20852;-74
2022/04/03 01:46:31;;;;;;;7.60;6.67;;;;;;;;;;5074201;28;20444;-74
2022/04/03 01:48:57;;;;;;;6.77;6.30;;;;;;;;;;5073886;28;20442;-74
2022/04/03 01:51:23;;;;;;;7.30;6.70;;;;;;;;;;5073854;28;20417;-75
2022/04/03 01:53:49;;;;;;;7.47;6.77;;;;;;;;;;5074471;28;20424;-74
2022/04/03 01:56:15;;;;;;;7.60;7.00;;;;;;;;;;5073779;28;20425;-74
2022/04/03 01:58:41;;;;;;;6.47;6.17;;;;;;;;;;5073755;28;20468;-74
2022/04/03 02:01:07;;;;;;;7.20;6.47;;;;;;;;;;5074496;28;20425;-74
2022/04/03 02:03:33;;;;;;;7.97;7.23;;;;;;;;;;5073709;28;20469;-74
2022/04/03 02:05:59;;;;;;;8.40;7.50;;;;;;;;;;5073210;28;20775;-74
2022/04/03 02:08:25;;;;;;;8.07;7.47;;;;;;;;;;5073778;28;20421;-75
2022/04/03 02:10:51;;;;;;;8.30;7.50;;;;;;;;;;5073545;28;20417;-74
2022/04/03 02:13:17;;;;;;;8.10;7.50;;;;;;;;;;5073720;28;20461;-74
2022/04/03 02:15:43;;;;;;;7.80;7.17;;;;;;;;;;5073664;28;20749;-75
2022/04/03 02:18:09;;;;;;;7.57;6.97;;;;;;;;;;5073687;28;20497;-74
2022/04/03 02:20:36;;;;;;;8.00;7.40;;;;;;;;;;5073567;28;20897;-75
2022/04/03 02:23:03;;;;;;;8.70;8.07;;;;;;;;;;5073260;28;20468;-74
2022/04/03 02:25:29;;;;;;;8.07;7.33;;;;;;;;;;5073218;28;20425;-74
2022/04/03 02:27:56;;;;;;;9.50;8.70;;;;;;;;;;5073215;28;20448;-75
2022/04/03 02:30:23;;;;;;;9.10;8.40;;;;;;;;;;5073355;28;20410;-74
2022/04/03 02:32:49;;;;;;;8.73;8.03;;;;;;;;;;5073223;28;20433;-74
2022/04/03 02:35:15;;;;;;;10.07;9.27;;;;;;;;;;5073449;28;20544;-74
2022/04/03 02:37:43;;;;;;;8.50;7.80;;;;;;;;;;5073417;28;20436;-74
2022/04/03 02:40:10;;;;;;;9.30;8.50;;;;;;;;;;5073464;28;20413;-74
2022/04/03 02:42:36;;;;;;;9.13;8.27;;;;;;;;;;5073080;28;20850;-74
2022/04/03 02:45:03;;;;;;;9.47;8.50;;;;;;;;;;5073206;28;20485;-73
2022/04/03 02:47:29;;;;;;;10.17;9.17;;;;;;;;;;5073018;28;20465;-73
2022/04/03 02:49:55;;;;;;;9.70;8.80;;;;;;;;;;5072970;28;20486;-74
2022/04/03 02:52:21;;;;;;;8.50;7.90;;;;;;;;;;5054973;28;20428;-74
2022/04/03 02:54:48;;;;;;;10.23;9.43;;;;;;;;;;5073248;28;20482;-74
2022/04/03 02:57:16;;;;;;;9.43;8.63;;;;;;;;;;5072993;28;20426;-73
2022/04/03 02:59:42;;;;;;;10.13;9.17;;;;;;;;;;5073201;28;20427;-73
2022/04/03 03:02:10;;;;;;;9.40;8.57;;;;;;;;;;5072824;28;20553;-74
2022/04/03 03:04:36;;;;;;;10.97;9.60;;;;;;;;;;5072828;28;20458;-73
2022/04/03 03:07:02;;;;;;;10.07;9.20;;;;;;;;;;5073541;28;20417;-73
2022/04/03 03:09:28;;;;;;;9.07;8.30;;;;;;;;;;5072803;28;20454;-74
2022/04/03 03:11:54;;;;;;;10.27;9.27;;;;;;;;;;5073096;28;20413;-74
2022/04/03 03:14:21;;;;;;;9.97;9.07;;;;;;;;;;5072664;28;20413;-73
2022/04/03 03:16:47;;;;;;;10.33;9.20;;;;;;;;;;5073050;28;20487;-73
2022/04/03 03:19:13;;;;;;;10.10;9.30;;;;;;;;;;5076676;28;20496;-73
2022/04/03 03:21:39;;;;;;;9.67;8.67;;;;;;;;;;5076956;28;20441;-73
2022/04/03 03:24:06;;;;;;;10.17;9.30;;;;;;;;;;5077139;28;20822;-73
2022/04/03 03:26:32;;;;;;;10.90;9.80;;;;;;;;;;5076909;28;20436;-73
2022/04/03 03:28:58;;;;;;;10.63;9.27;;;;;;;;;;5077104;28;20432;-74
2022/04/03 03:31:24;;;;;;;11.00;9.90;;;;;;;;;;5076238;28;20568;-74
2022/04/03 03:33:50;;;;;;;9.57;8.60;;;;;;;;;;5076391;28;20421;-73
2022/04/03 03:36:16;;;;;;;9.43;8.63;;;;;;;;;;5058457;28;20524;-74
2022/04/03 03:38:42;;;;;;;10.63;9.77;;;;;;;;;;5076774;28;20424;-74
2022/04/03 03:41:09;;;;;;;9.83;8.90;;;;;;;;;;5076712;28;20532;-74
2022/04/03 03:43:36;;;;;;;10.90;8.20;;;;;;;;;;5076238;28;20472;-74
2022/04/03 03:46:02;;;;;;;8.53;8.00;;;;;;;;;;5076235;28;20418;-73
2022/04/03 03:48:28;;;;;;;9.63;8.93;;;;;;;;;;5076254;28;20512;-74
2022/04/03 03:50:55;;;;;;;10.60;9.60;;;;;;;;;;5076193;28;20451;-74
2022/04/03 03:56:24;;;;;;;9.93;8.33;;;;;;;;;;5076236;28;20416;-74
2022/04/03 03:58:50;;;;;;;7.83;7.13;;;;;;;;;;5076213;28;20954;-74
2022/04/03 04:01:16;;;;;;;10.00;9.10;;;;;;;;;;5075759;28;20460;-74
2022/04/03 04:03:42;;;;;;;8.60;7.90;;;;;;;;;;5076071;28;20480;-74
2022/04/03 04:06:08;;;;;;;9.10;8.30;;;;;;;;;;5075894;28;20818;-74
2022/04/03 04:08:34;;;;;;;8.53;7.83;;;;;;;;;;5075973;28;20417;-74
2022/04/03 04:11:00;;;;;;;10.10;8.50;;;;;;;;;;5076649;28;20425;-74
2022/04/03 04:13:28;;;;;;;9.57;8.87;;;;;;;;;;5075676;28;20425;-74
2022/04/03 04:15:54;;;;;;;9.63;8.73;;;;;;;;;;5075757;28;20420;-73
2022/04/03 04:18:20;;;;;;;10.27;9.23;;;;;;;;;;5075664;28;20898;-74
2022/04/03 04:20:46;;;;;;;8.83;8.03;;;;;;;;;;5075711;28;20418;-74
2022/04/03 04:23:13;;;;;;;8.70;7.97;;;;;;;;;;5075521;28;20467;-74
2022/04/03 04:25:39;;;;;;;9.33;8.43;;;;;;;;;;5075443;28;20901;-74
2022/04/03 04:28:05;;;;;;;10.03;9.07;;;;;;;;;;5075508;28;20418;-74
2022/04/03 04:30:31;;;;;;;9.07;8.30;;;;;;;;;;5056988;28;20421;-73
2022/04/03 04:32:58;;;;;;;8.53;7.63;;;;;;;;;;5076058;28;20505;-73
2022/04/03 04:35:24;;;;;;;9.37;8.40;;;;;;;;;;5075557;28;20517;-74
2022/04/03 04:37:51;;;;;;;10.23;9.33;;;;;;;;;;5075260;28;20410;-74
2022/04/03 04:40:17;;;;;;;9.70;8.77;;;;;;;;;;5075864;28;20475;-73
2022/04/03 04:42:43;;;;;;;8.70;7.90;;;;;;;;;;5075238;28;20449;-74
2022/04/03 04:45:09;;;;;;;9.33;8.53;;;;;;;;;;5075547;28;20418;-74
2022/04/03 04:47:36;;;;;;;8.03;7.17;;;;;;;;;;5075429;28;20453;-73
2022/04/03 04:50:05;;;;;;;8.50;7.80;;;;;;;;;;5075369;28;20421;-74
2022/04/03 04:52:31;;;;;;;9.93;8.87;;;;;;;;;;5075567;28;20439;-74
2022/04/03 04:54:57;;;;;;;8.07;7.43;;;;;;;;;;5075280;28;20425;-73
2022/04/03 04:57:23;;;;;;;9.17;8.40;;;;;;;;;;5074865;28;20445;-74
2022/04/03 04:59:49;;;;;;;11.17;8.73;;;;;;;;;;5074759;28;20418;-74
2022/04/03 05:02:15;;;;;;;10.00;9.10;;;;;;;;;;5075337;28;20867;-74
2022/04/03 05:04:41;;;;;;;16.90;8.90;;;;;;;;;;5074774;28;20771;-74
2022/04/03 05:07:09;;;;;;;9.83;8.63;;;;;;;;;;5074748;28;20433;-74
2022/04/03 05:09:35;;;;;;;9.27;8.27;;;;;;;;;;5074765;28;20417;-73
2022/04/03 05:12:01;;;;;;;12.13;9.00;;;;;;;;;;5074924;28;20416;-73
2022/04/03 05:14:27;;;;;;;9.87;8.90;;;;;;;;;;5074839;28;20488;-74
2022/04/03 05:16:53;;;;;;;8.40;7.60;;;;;;;;;;5074582;28;20944;-74
2022/04/03 05:19:19;;;;;;;11.20;9.50;;;;;;;;;;5074785;28;20418;-74
2022/04/03 05:21:45;;;;;;;8.17;7.33;;;;;;;;;;5074741;28;20482;-73
2022/04/03 05:24:12;;;;;;;8.90;8.00;;;;;;;;;;5074295;28;20473;-73
2022/04/03 05:26:38;;;;;;;9.87;8.90;;;;;;;;;;5074378;28;20517;-73
2022/04/03 05:29:04;;;;;;;9.70;7.20;;;;;;;;;;5074321;28;20459;-73
2022/04/03 05:31:30;;;;;;;8.17;7.53;;;;;;;;;;5056062;28;20980;-74
2022/04/03 05:33:56;;;;;;;8.53;7.70;;;;;;;;;;5074273;28;20429;-74
2022/04/03 05:36:22;;;;;;;7.83;7.30;;;;;;;;;;5074525;28;20406;-73
2022/04/03 05:38:49;;;;;;;9.03;8.23;;;;;;;;;;5074259;28;20609;-74
2022/04/03 05:41:15;;;;;;;11.03;8.37;;;;;;;;;;5073007;28;20903;-75
2022/04/03 05:43:41;;;;;;;10.30;7.40;;;;;;;;;;5074127;28;20477;-75
2022/04/03 05:46:08;;;;;;;9.03;8.17;;;;;;;;;;5074157;28;20402;-75
2022/04/03 05:48:34;;;;;;;8.43;7.83;;;;;;;;;;5056058;28;20436;-74
2022/04/03 05:51:00;;;;;;;9.03;8.20;;;;;;;;;;5074060;28;20413;-75
2022/04/03 05:53:26;;;;;;;8.33;7.53;;;;;;;;;;5074032;28;20907;-75
2022/04/03 05:55:52;;;;;;;8.97;8.13;;;;;;;;;;5073673;28;20431;-74
2022/04/03 05:58:17;;;;;;;10.47;8.43;;;;;;;;;;5074048;28;20414;-74
2022/04/03 06:00:43;;;;;;;8.33;7.40;;;;;;;;;;5073574;28;20427;-74
2022/04/03 06:06:13;;;;;;;9.80;8.83;;;;;;;;;;5073321;28;20489;-74
2022/04/03 06:08:39;;;;;;;8.87;8.07;;;;;;;;;;5073364;28;20440;-75
2022/04/03 06:11:06;;;;;;;9.83;8.90;;;;;;;;;;5073758;28;20444;-74
2022/04/03 06:13:32;;;;;;;11.40;7.83;;;;;;;;;;5073370;28;20414;-73
2022/04/03 06:15:58;;;;;;;8.70;7.97;;;;;;;;;;5073724;28;20421;-75
2022/04/03 06:18:24;;;;;;;8.23;7.53;;;;;;;;;;5073722;28;20405;-74
2022/04/03 06:20:51;;;;;;;9.30;7.63;;;;;;;;;;5074159;28;20421;-65
2022/04/03 06:23:18;;;;;;;9.38;8.68;;;;;;;;;;5072211;28;20799;-74
2022/04/03 06:25:44;;;;;;;8.30;7.47;;;;;;;;;;5073004;28;20167;-75
2022/04/03 06:28:11;;;;;;;8.40;7.80;;;;;;;;;;5072835;28;20410;-75
2022/04/03 06:30:37;;;;;;;9.27;8.27;;;;;;;;;;5072541;28;20402;-74
2022/04/03 06:33:03;;;;;;;8.90;8.10;;;;;;;;;;5073861;28;20171;-76
2022/04/03 06:35:29;;;;;;;9.30;8.60;;;;;;;;;;5073138;28;20409;-74
2022/04/03 06:37:55;;;;;;;7.77;7.07;;;;;;;;;;5055122;28;20417;-74
2022/04/03 06:40:23;;;;;;;7.33;6.70;;;;;;;;;;5073343;28;20417;-74
2022/04/03 06:42:49;;;;;;;8.40;7.70;;;;;;;;;;5072552;28;20514;-74
2022/04/03 06:45:15;;;;;;;8.30;7.50;;;;;;;;;;5072790;28;20437;-74
2022/04/03 06:47:41;;;;;;;8.23;7.43;;;;;;;;;;5073175;28;20406;-75
2022/04/03 06:50:08;;;;;;;8.57;7.60;;;;;;;;;;5073017;28;20418;-76
2022/04/03 06:52:34;;;;;;;9.73;8.73;;;;;;;;;;5072962;28;20496;-75
2022/04/03 06:55:00;;;;;;;9.90;7.90;;;;;;;;;;5073271;28;20771;-74
2022/04/03 06:57:26;;;;;;;8.90;8.00;;;;;;;;;;5073111;28;20416;-74
2022/04/03 06:59:52;;;;;;;8.57;7.87;;;;;;;;;;5073188;28;20410;-74
2022/04/03 07:02:18;;;;;;;9.27;8.43;;;;;;;;;;5072705;28;20473;-74
2022/04/03 07:04:45;;;;;;;8.67;7.80;;;;;;;;;;5073026;28;20512;-76
2022/04/03 07:07:11;;;;;;;9.30;8.40;;;;;;;;;;5072887;28;20405;-76
2022/04/03 07:09:41;;;;;;;8.60;7.73;;;;;;;;;;5072845;28;20424;-75
2022/04/03 07:12:07;;;;;;;9.07;8.23;;;;;;;;;;5072848;28;20405;-75
2022/04/03 07:14:33;;;;;;;12.13;8.83;;;;;;;;;;5073102;28;20422;-75
2022/04/03 07:16:59;;;;;;;9.50;8.70;;;;;;;;;;5073074;28;20504;-73
2022/04/03 07:19:26;;;;;;;8.57;7.77;;;;;;;;;;5072885;28;20417;-75
2022/04/03 07:21:52;;;;;;;7.73;7.17;;;;;;;;;;5073364;28;20406;-74
2022/04/03 07:24:18;;;;;;;9.23;8.33;;;;;;;;;;5055398;28;20502;-67
2022/04/03 07:26:44;;;;;;;10.60;7.70;;;;;;;;;;5072653;28;20452;-67
2022/04/03 07:29:10;;;;;;;9.73;7.83;;;;;;;;;;5072746;28;20417;-68
2022/04/03 07:31:36;;;;;;;8.10;7.50;;;;;;;;;;5072069;28;20450;-68
2022/04/03 07:34:02;;;;;;;8.40;7.67;;;;;;;;;;5073056;28;20799;-68
2022/04/03 07:36:29;;;;;;;10.00;8.03;;;;;;;;;;5072905;28;20515;-68
2022/04/03 07:38:55;;;;;;;9.70;8.27;;;;;;;;;;5072558;28;20425;-69
2022/04/03 07:41:22;;;;;;;9.07;8.30;;;;;;;;;;5072598;28;20415;-69
2022/04/03 07:43:48;;;;;;;8.03;7.43;;;;;;;;;;5072360;28;20464;-68
2022/04/03 07:46:16;;;;;;;9.03;8.00;;;;;;;;;;5054517;28;20524;-68
2022/04/03 07:48:42;;;;;;;8.73;7.80;;;;;;;;;;5072742;28;20461;-69
2022/04/03 07:51:08;;;;;;;8.70;7.90;;;;;;;;;;5072440;28;20421;-68
2022/04/03 07:53:34;;;;;;;9.97;8.23;;;;;;;;;;5072660;28;20475;-75
2022/04/03 07:56:00;;;;;;;10.30;7.20;;;;;;;;;;5072387;28;20496;-74
2022/04/03 07:58:27;;;;;;;14.13;8.17;;;;;;;;;;5072314;28;20448;-74
2022/04/03 08:00:53;;;;;;;7.40;6.90;;;;;;;;;;5072182;28;20414;-74
2022/04/03 08:03:19;;;;;;;6.23;5.73;;;;;;;;;;5072296;28;20492;-74
2022/04/03 08:05:45;;;;;;;6.77;6.33;;;;;;;;;;5075207;28;20414;-75
2022/04/03 08:08:11;;;;;;;7.30;6.90;;;;;;;;;;5076107;28;20425;-76
2022/04/03 08:10:37;;;;;;;7.93;6.67;;;;;;;;;;5075850;28;20414;-74
2022/04/03 08:16:06;;;;;;;7.27;6.60;;;;;;;;;;5075854;28;20392;-74
2022/04/03 08:18:32;;;;;;;7.93;7.07;;;;;;;;;;5075644;28;20398;-74
2022/04/03 08:20:58;;;;;;;6.60;6.10;;;;;;;;;;5075680;28;20409;-76
2022/04/03 08:23:24;;;;;;;6.90;6.40;;;;;;;;;;5075505;28;20464;-75
2022/04/03 08:25:50;;;;;;;7.83;7.23;;;;;;;;;;5075508;28;20820;-74
2022/04/03 08:28:17;;;;;;;6.50;6.10;;;;;;;;;;5075542;28;20421;-74
2022/04/03 08:30:43;;;;;;;6.63;6.27;;;;;;;;;;5075170;28;20821;-77
2022/04/03 08:33:09;;;;;;;7.27;6.53;;;;;;;;;;5075756;28;20413;-74
2022/04/03 08:35:38;;;;;;;5.90;5.53;;;;;;;;;;5075384;28;20419;-75
2022/04/03 08:38:05;;;;;;;7.70;7.20;;;;;;;;;;5074816;28;20809;-75
2022/04/03 08:40:31;;;;;;;7.83;7.13;;;;;;;;;;5075622;28;20261;-74
2022/04/03 08:42:58;;;;;;;6.37;5.97;;;;;;;;;;5075262;28;20453;-73
2022/04/03 08:45:24;;;;;;;5.40;5.10;;;;;;;;;;5075394;28;20425;-75
2022/04/03 08:47:51;;;;;;;6.77;6.17;;;;;;;;;;5075283;28;20740;-75
2022/04/03 08:50:18;;;;;;;6.97;6.37;;;;;;;;;;5075448;28;20431;-74
2022/04/03 08:55:47;;;;;;;6.67;6.07;;;;;;;;;;5074814;28;20927;-75
2022/04/03 08:58:13;;;;;;;5.50;5.20;;;;;;;;;;5074913;28;20441;-76
2022/04/03 09:00:39;;;;;;;6.53;5.97;;;;;;;;;;5075171;28;20412;-74
2022/04/03 09:03:06;;;;;;;5.70;5.50;;;;;;;;;;5074899;28;20560;-74
2022/04/03 09:05:36;;;;;;;6.13;5.63;;;;;;;;;;5074868;28;20418;-75
2022/04/03 09:08:03;;;;;;;5.07;4.77;;;;;;;;;;5075083;28;20505;-72
2022/04/03 09:10:29;;;;;;;5.57;5.27;;;;;;;;;;5074622;28;20426;-77
2022/04/03 09:12:55;;;;;;;5.30;5.00;;;;;;;;;;5075016;28;20417;-75
2022/04/03 09:15:23;;;;;;;6.47;6.03;;;;;;;;;;5074434;28;20463;-74
2022/04/03 09:17:52;;;;;;;6.20;5.80;;;;;;;;;;5074454;28;20435;-74
2022/04/03 09:20:19;;;;;;;6.70;6.10;;;;;;;;;;5074568;28;20414;-76
2022/04/03 09:22:46;;;;;;;5.33;4.93;;;;;;;;;;5074129;28;20457;-74
2022/04/03 09:25:14;;;;;;;7.10;6.53;;;;;;;;;;5074500;28;20422;-78
2022/04/03 09:27:46;;;;;;;7.50;6.73;;;;;;;;;;5074157;28;20406;-76
2022/04/03 09:30:12;;;;;;;7.10;6.57;;;;;;;;;;5074289;28;20940;-76
2022/04/03 09:32:52;;;;;;;6.23;5.83;;;;;;;;;;5074123;28;20461;-74
2022/04/03 09:35:19;;;;;;;5.63;5.17;;;;;;;;;;5074159;28;20536;-75
2022/04/03 09:38:04;;;;;;;7.07;6.40;;;;;;;;;;5074405;28;20418;-75
2022/04/03 09:40:30;;;;;;;9.00;8.20;;;;;;;;;;5074414;28;20414;-77
2022/04/03 09:43:16;;;;;;;6.50;6.00;;;;;;;;;;5074376;28;20453;-77
2022/04/03 09:45:45;;;;;;;7.67;7.07;;;;;;;;;;5073808;28;20455;-75
2022/04/03 09:48:25;;;;;;;7.53;6.90;;;;;;;;;;5074269;28;20911;-74
2022/04/03 09:51:11;;;;;;;14.20;5.60;;;;;;;;;;5073980;28;20416;-75
2022/04/03 09:53:51;;;;;;;5.70;5.40;;;;;;;;;;5074095;28;20498;-74
2022/04/03 09:56:20;;;;;;;7.70;5.60;;;;;;;;;;5073767;28;20450;-77
2022/04/03 09:58:52;;;;;;;5.73;5.33;;;;;;;;;;5073943;28;20406;-77
2022/04/03 10:01:31;;;;;;;7.33;6.03;;;;;;;;;;5073992;28;20409;-76
2022/04/03 10:03:59;;;;;;;7.23;6.83;;;;;;;;;;5055649;28;20468;-77
2022/04/03 10:06:25;;;;;;;6.63;6.13;;;;;;;;;;5073747;28;20433;-76
2022/04/03 10:08:51;;;;;;;4.10;4.00;;;;;;;;;;5073618;28;20928;-75
2022/04/03 10:11:17;;;;;;;5.37;5.10;;;;;;;;;;5073806;28;20413;-76
2022/04/03 10:13:44;;;;;;;5.47;5.20;;;;;;;;;;5073555;28;20895;-75
2022/04/03 10:16:11;;;;;;;4.50;4.30;;;;;;;;;;5073425;28;20449;-75
2022/04/03 10:18:37;;;;;;;5.43;5.33;;;;;;;;;;5073670;28;20432;-74
2022/04/03 10:21:05;;;;;;;5.00;4.80;;;;;;;;;;5073246;28;20409;-74
2022/04/03 10:23:32;;;;;;;4.53;4.33;;;;;;;;;;5073224;28;20654;-76
2022/04/03 10:25:59;;;;;;;5.30;4.90;;;;;;;;;;5073331;28;20902;-74
2022/04/03 10:28:25;;;;;;;4.77;4.60;;;;;;;;;;5072955;28;20506;-75
2022/04/03 10:30:58;;;;;;;6.27;5.80;;;;;;;;;;5073115;28;20458;-75
2022/04/03 10:33:24;;;;;;;4.87;4.67;;;;;;;;;;5073356;28;20536;-76
2022/04/03 10:36:02;;;;;;;4.97;4.67;;;;;;;;;;5073172;28;20406;-75
2022/04/03 10:38:34;;;;;;;4.97;4.67;;;;;;;;;;5072976;28;20409;-75
2022/04/03 10:41:00;;;;;;;5.43;5.00;;;;;;;;;;5073472;28;20891;-79
2022/04/03 10:43:29;;;;;;;3.27;3.17;;;;;;;;;;5072962;28;20469;-74
2022/04/03 10:45:56;;;;;;;3.40;3.40;;;;;;;;;;5073429;28;20426;-75
2022/04/03 10:48:21;;;;;;;3.20;3.10;;;;;;;;;;5073337;28;20421;-77
2022/04/03 10:50:56;;;;;;;3.70;3.57;;;;;;;;;;5073701;28;20428;-75
2022/04/03 10:56:27;;;;;;;4.03;3.83;;;;;;;;;;5072966;28;20435;-76
2022/04/03 10:58:55;;;;;;;3.40;3.30;;;;;;;;;;5072909;28;20452;-76
2022/04/03 11:01:24;;;;;;;4.50;4.40;;;;;;;;;;5073162;28;20443;-75
2022/04/03 11:03:55;;;;;;;4.87;4.57;;;;;;;;;;5072999;28;20480;-76
2022/04/03 11:06:23;;;;;;;4.67;4.30;;;;;;;;;;5073140;28;20417;-81
2022/04/03 11:09:05;;;;;;;7.43;4.60;;;;;;;;;;5072864;28;20471;-74
2022/04/03 11:11:32;;;;;;;4.03;3.93;;;;;;;;;;5072998;28;20444;-76
2022/04/03 11:13:58;;;;;;;4.60;4.30;;;;;;;;;;5072518;28;20795;-75
2022/04/03 11:16:26;;;;;;;4.23;4.10;;;;;;;;;;5072786;28;20413;-75
2022/04/03 11:18:52;;;;;;;3.90;3.80;;;;;;;;;;5072908;28;20417;-75
2022/04/03 11:21:21;;;;;;;4.13;4.00;;;;;;;;;;5072645;28;20906;-75
2022/04/03 11:23:49;;;;;;;4.80;4.60;;;;;;;;;;5072486;28;20547;-74
2022/04/03 11:26:15;;;;;;;4.53;4.33;;;;;;;;;;5072580;28;20409;-75
2022/04/03 11:28:42;;;;;;;3.57;3.57;;;;;;;;;;5072964;28;20417;-75
2022/04/03 11:31:08;;;;;;;4.23;4.03;;;;;;;;;;5072224;28;21034;-75
2022/04/03 11:33:35;;;;;;;5.40;5.20;;;;;;;;;;5072261;28;20449;-74
2022/04/03 11:36:14;;;;;;;4.43;4.20;;;;;;;;;;5072471;28;20500;-75
2022/04/03 11:38:41;;;;;;;3.10;3.10;;;;;;;;;;5073907;28;20421;-75
2022/04/03 11:41:11;;;;;;;3.40;3.40;;;;;;;;;;5076106;28;20785;-75
2022/04/03 11:43:37;;;;;;;3.03;3.03;;;;;;;;;;5076219;28;20461;-76
2022/04/03 11:46:04;;;;;;;2.87;2.73;;;;;;;;;;5076123;28;20459;-76
2022/04/03 11:48:32;;;;;;;2.87;2.87;;;;;;;;;;5076111;28;20439;-75
2022/04/03 11:51:07;;;;;;;3.03;2.93;;;;;;;;;;5076276;28;20463;-75
2022/04/03 11:53:33;;;;;;;3.80;3.70;;;;;;;;;;5075890;28;20413;-75
2022/04/03 11:56:25;;;;;;;3.77;3.57;;;;;;;;;;5075990;28;20464;-75
2022/04/03 11:58:54;;;;;;;3.80;3.50;;;;;;;;;;5053681;28;20777;-75
2022/04/03 12:01:30;;;;;;;2.67;2.57;;;;;;;;;;5076048;28;20897;-75
2022/04/03 12:04:05;;;;;;;4.00;3.70;;;;;;;;;;5057801;28;20469;-75
2022/04/03 12:06:31;;;;;;;3.23;3.13;;;;;;;;;;5076037;28;20432;-75
2022/04/03 12:08:58;;;;;;;3.17;2.97;;;;;;;;;;5075588;28;20422;-75
2022/04/03 12:11:25;;;;;;;3.17;3.03;;;;;;;;;;5075647;28;20924;-75
2022/04/03 12:13:52;;;;;;;4.10;3.90;;;;;;;;;;5075616;28;20418;-76
2022/04/03 12:16:20;;;;;;;2.90;2.90;;;;;;;;;;5075668;28;20417;-75
2022/04/03 12:19:05;;;;;;;3.13;2.83;;;;;;;;;;5075718;28;20503;-76
2022/04/03 12:21:37;;;;;;;4.43;3.93;;;;;;;;;;5075382;28;20409;-75
2022/04/03 12:24:08;;;;;;;3.73;3.50;;;;;;;;;;5075638;28;20469;-75
2022/04/03 12:26:34;;;;;;;3.87;3.77;;;;;;;;;;5075604;28;20421;-75
2022/04/03 12:29:00;;;;;;;3.23;3.13;;;;;;;;;;5075596;28;20410;-74
2022/04/03 12:31:30;;;;;;;4.17;3.90;;;;;;;;;;5075118;28;20491;-74
2022/04/03 12:34:12;;;;;;;3.80;3.70;;;;;;;;;;5075224;28;20421;-77
2022/04/03 12:36:39;;;;;;;3.57;3.37;;;;;;;;;;5075322;28;20441;-73
2022/04/03 12:39:05;;;;;;;3.77;3.57;;;;;;;;;;5075168;28;20449;-74
2022/04/03 12:41:31;;;;;;;3.40;3.30;;;;;;;;;;5076019;28;20441;-75
2022/04/03 12:43:57;;;;;;;2.67;2.43;;;;;;;;;;5074647;28;20993;-75
2022/04/03 12:46:23;;;;;;;2.20;2.20;;;;;;;;;;5056960;28;20413;-75
2022/04/03 12:48:52;;;;;;;2.63;2.53;;;;;;;;;;5074900;28;20470;-75
2022/04/03 12:51:18;;;;;;;2.30;2.20;;;;;;;;;;5074023;28;20418;-74
2022/04/03 12:53:51;;;;;;;2.80;2.70;;;;;;;;;;5075115;28;20425;-74
2022/04/03 12:56:17;;;;;;;2.30;2.20;;;;;;;;;;5074871;28;20467;-74
2022/04/03 12:58:49;;;;;;;5.43;3.07;;;;;;;;;;5075029;28;20426;-74
2022/04/03 13:01:15;;;;;;;2.07;2.07;;;;;;;;;;5075631;28;20414;-74
2022/04/03 13:03:41;;;;;;;2.50;2.40;;;;;;;;;;5074572;28;20464;-74
2022/04/03 13:06:09;;;;;;;8.30;2.30;;;;;;;;;;5074821;28;20412;-74
2022/04/03 13:08:42;;;;;;;2.10;2.00;;;;;;;;;;5074846;28;20429;-74
2022/04/03 13:11:08;;;;;;;3.00;2.87;;;;;;;;;;5075038;28;20410;-74
2022/04/03 13:13:35;;;;;;;2.67;2.47;;;;;;;;;;5074793;28;20445;-74
2022/04/03 13:16:01;;;;;;;3.27;3.17;;;;;;;;;;5074690;28;20409;-74
2022/04/03 13:18:27;;;;;;;3.63;3.40;;;;;;;;;;5074798;28;20499;-70
2022/04/03 13:20:55;;;;;;;3.30;3.20;;;;;;;;;;5074731;28;20413;-74
2022/04/03 13:23:22;;;;;;;2.87;2.77;;;;;;;;;;5074372;28;20465;-74
2022/04/03 13:25:48;;;;;;;2.60;2.50;;;;;;;;;;5074538;28;20417;-74
2022/04/03 13:28:15;;;;;;;2.90;2.70;;;;;;;;;;5074583;28;20462;-74
2022/04/03 13:30:42;;;;;;;4.83;2.63;;;;;;;;;;5074276;28;20444;-74
2022/04/03 13:33:08;;;;;;;3.00;2.90;;;;;;;;;;5074640;28;20908;-74
2022/04/03 13:35:37;;;;;;;2.70;2.70;;;;;;;;;;5074539;28;20417;-74
2022/04/03 13:38:04;;;;;;;2.80;2.80;;;;;;;;;;5074345;28;20449;-74
2022/04/03 13:40:30;;;;;;;3.63;3.43;;;;;;;;;;5074095;28;20418;-74
2022/04/03 13:42:57;;;;;;;4.40;2.87;;;;;;;;;;5073765;28;20476;-74
2022/04/03 13:45:56;;;;;;;2.73;2.63;;;;;;;;;;5073994;28;20437;-74
2022/04/03 13:48:09;;;;;;;3.50;3.23;;;;;;;;;;5073658;28;20801;-75
2022/04/03 13:50:36;;;;;;;2.77;2.70;;;;;;;;;;5073931;28;20425;-74
2022/04/03 13:53:02;;;;;;;6.10;2.40;;;;;;;;;;5074169;28;20436;-75
2022/04/03 13:55:28;;;;;;;2.60;2.50;;;;;;;;;;5073940;28;20429;-74
2022/04/03 13:57:54;;;;;;;3.23;3.13;;;;;;;;;;5073876;28;20424;-74
2022/04/03 14:00:20;;;;;;;2.80;2.70;;;;;;;;;;5073615;28;20491;-74
2022/04/03 14:02:47;;;;;;;2.30;2.30;;;;;;;;;;5072681;28;20469;-74
2022/04/03 14:05:13;;;;;;;4.53;2.83;;;;;;;;;;5073930;28;20425;-74
2022/04/03 14:07:39;;;;;;;2.63;2.53;;;;;;;;;;5073441;28;20425;-74
2022/04/03 14:10:06;;;;;;;2.20;2.20;;;;;;;;;;5073485;28;20923;-74
2022/04/03 14:12:32;;;;;;;2.63;2.53;;;;;;;;;;5073396;28;20413;-74
2022/04/03 14:14:58;;;;;;;2.33;2.20;;;;;;;;;;5073104;28;20410;-74
2022/04/03 14:17:24;;;;;;;1.87;1.77;;;;;;;;;;5073545;28;20414;-74
2022/04/03 14:19:50;;;;;;;1.90;1.90;;;;;;;;;;5073365;28;20417;-75
2022/04/03 14:22:16;;;;;;;2.10;2.00;;;;;;;;;;5073352;28;20418;-74
2022/04/03 14:24:42;;;;;;;1.80;1.80;;;;;;;;;;5073272;28;20428;-75
2022/04/03 14:27:08;;;;;;;2.73;2.60;;;;;;;;;;5073769;28;20413;-75
2022/04/03 14:29:34;;;;;;;2.40;2.30;;;;;;;;;;5073169;28;20422;-74
2022/04/03 14:32:00;;;;;;;1.73;1.63;;;;;;;;;;5072892;28;20548;-75
2022/04/03 14:34:26;;;;;;;2.50;1.83;;;;;;;;;;5072754;28;20413;-75
2022/04/03 14:36:53;;;;;;;4.00;2.90;;;;;;;;;;5055511;28;20418;-74
2022/04/03 14:39:19;;;;;;;2.33;2.23;;;;;;;;;;5072827;28;20409;-75
2022/04/03 14:41:46;;;;;;;2.03;1.67;;;;;;;;;;5073144;28;20421;-74
2022/04/03 14:44:12;;;;;;;2.07;2.03;;;;;;;;;;5073115;28;20473;-74
2022/04/03 14:46:38;;;;;;;1.70;1.60;;;;;;;;;;5072982;28;20520;-73
2022/04/03 14:49:04;;;;;;;2.47;2.33;;;;;;;;;;5072813;28;20505;-74
2022/04/03 14:51:30;;;;;;;2.80;2.20;;;;;;;;;;5072866;28;20414;-73
2022/04/03 14:53:56;;;;;;;2.03;2.03;;;;;;;;;;5072770;28;20414;-74
2022/04/03 14:56:22;;;;;;;1.50;1.50;;;;;;;;;;5073050;28;20460;-73